VOE5516 LFBO-LFQQ
Flight info
| Callsign | VOE5516 |
|---|---|
| Flight time | N/A |
| Altitude | 34000 |
| Route | FISTO DCT PERIG DCT ADABI DCT BOKNO UN858 VANAD UN874 ARSAF DCT EGOZE DCT PERON N874 SULEX |
| Aircraft | A319/M-SDE3FGHIRWY/LB1 |
Departure
| Time | 2026-04-30 14:10 |
|---|---|
| Airport | Toulouse-Blagnac Airport (LFBO) |
Arrival
| Time | N/A |
|---|---|
| Airport | Lille Airport (LFQQ) |
| Time | Latitude | Longitude | Altitude | Speed | Heading |
|---|---|---|---|---|---|
| 2026-04-30 13:41 | 43.63037 | 1.37248 | 494 ft | 0 kts | 53° |
| 2026-04-30 14:01 | 43.63025 | 1.37227 | 483 ft | 4 kts | 53° |
| 2026-04-30 14:01 | 43.63013 | 1.37203 | 483 ft | 3 kts | 53° |
| 2026-04-30 14:02 | 43.62995 | 1.37177 | 488 ft | 4 kts | 30° |
| 2026-04-30 14:02 | 43.62976 | 1.37172 | 488 ft | 2 kts | 323° |
| 2026-04-30 14:02 | 43.62974 | 1.37173 | 487 ft | 0 kts | 322° |
| 2026-04-30 14:05 | 43.62975 | 1.37172 | 488 ft | 1 kts | 322° |
| 2026-04-30 14:05 | 43.63005 | 1.37140 | 493 ft | 12 kts | 318° |
| 2026-04-30 14:06 | 43.62990 | 1.37030 | 489 ft | 13 kts | 233° |
| 2026-04-30 14:06 | 43.63026 | 1.36810 | 494 ft | 24 kts | 323° |
| 2026-04-30 14:07 | 43.63319 | 1.36507 | 494 ft | 26 kts | 322° |
| 2026-04-30 14:07 | 43.63466 | 1.36353 | 490 ft | 26 kts | 323° |
| 2026-04-30 14:07 | 43.63613 | 1.36201 | 494 ft | 26 kts | 323° |
| 2026-04-30 14:08 | 43.63804 | 1.35905 | 491 ft | 14 kts | 230° |
| 2026-04-30 14:08 | 43.63785 | 1.35873 | 489 ft | 0 kts | 230° |
| 2026-04-30 14:08 | 43.63746 | 1.35804 | 494 ft | 14 kts | 232° |
| 2026-04-30 14:09 | 43.63673 | 1.35828 | 489 ft | 0 kts | 142° |
| 2026-04-30 14:09 | 43.63041 | 1.36489 | 491 ft | 126 kts | 142° |
| 2026-04-30 14:10 | 43.62212 | 1.37353 | 686 ft | 159 kts | 142° |
| 2026-04-30 14:10 | 43.61323 | 1.38269 | 1339 ft | 160 kts | 144° |
| 2026-04-30 14:10 | 43.60440 | 1.39155 | 2094 ft | 159 kts | 143° |
| 2026-04-30 14:10 | 43.59485 | 1.40098 | 2538 ft | 178 kts | 143° |
| 2026-04-30 14:11 | 43.58435 | 1.41125 | 2910 ft | 198 kts | 144° |
| 2026-04-30 14:11 | 43.57235 | 1.42303 | 3276 ft | 225 kts | 143° |
| 2026-04-30 14:11 | 43.55907 | 1.43650 | 3791 ft | 248 kts | 142° |
| 2026-04-30 14:11 | 43.54528 | 1.45154 | 4608 ft | 257 kts | 135° |
| 2026-04-30 14:12 | 43.53701 | 1.47339 | 5412 ft | 266 kts | 99° |
| 2026-04-30 14:12 | 43.53945 | 1.49877 | 6262 ft | 276 kts | 65° |
| 2026-04-30 14:12 | 43.55151 | 1.51987 | 6802 ft | 286 kts | 42° |
| 2026-04-30 14:12 | 43.56188 | 1.53108 | 6965 ft | 287 kts | 36° |
| 2026-04-30 14:13 | 43.58382 | 1.55220 | 7488 ft | 290 kts | 35° |
| 2026-04-30 14:13 | 43.60021 | 1.56791 | 8432 ft | 293 kts | 35° |
| 2026-04-30 14:13 | 43.61692 | 1.58412 | 9365 ft | 296 kts | 38° |
| 2026-04-30 14:13 | 43.63275 | 1.60291 | 10184 ft | 302 kts | 45° |
| 2026-04-30 14:14 | 43.64808 | 1.62415 | 10562 ft | 324 kts | 47° |
| 2026-04-30 14:14 | 43.66396 | 1.64764 | 10904 ft | 345 kts | 48° |
| 2026-04-30 14:14 | 43.67996 | 1.67298 | 11519 ft | 353 kts | 55° |
| 2026-04-30 14:14 | 43.69248 | 1.70226 | 12297 ft | 355 kts | 67° |
| 2026-04-30 14:15 | 43.70080 | 1.73448 | 13054 ft | 358 kts | 79° |
| 2026-04-30 14:15 | 43.70443 | 1.76846 | 13803 ft | 359 kts | 89° |
| 2026-04-30 14:15 | 43.70618 | 1.80309 | 14478 ft | 364 kts | 85° |
| 2026-04-30 14:15 | 43.71269 | 1.83716 | 15113 ft | 373 kts | 68° |
| 2026-04-30 14:16 | 43.72635 | 1.86794 | 15759 ft | 379 kts | 50° |
| 2026-04-30 14:16 | 43.74588 | 1.89196 | 16388 ft | 385 kts | 33° |
| 2026-04-30 14:16 | 43.76196 | 1.90357 | 16827 ft | 387 kts | 20° |
| 2026-04-30 14:16 | 43.79695 | 1.91252 | 17640 ft | 390 kts | 356° |
| 2026-04-30 14:17 | 43.82357 | 1.90622 | 18281 ft | 389 kts | 339° |
| 2026-04-30 14:17 | 43.84750 | 1.88924 | 18863 ft | 388 kts | 321° |
| 2026-04-30 14:17 | 43.86895 | 1.86646 | 19456 ft | 389 kts | 319° |
| 2026-04-30 14:17 | 43.89045 | 1.84348 | 20053 ft | 392 kts | 319° |
| 2026-04-30 14:18 | 43.91210 | 1.82036 | 20664 ft | 394 kts | 320° |
| 2026-04-30 14:18 | 43.93365 | 1.79742 | 21261 ft | 396 kts | 320° |
| 2026-04-30 14:18 | 43.97767 | 1.75052 | 22449 ft | 401 kts | 320° |
| 2026-04-30 14:19 | 44.02216 | 1.70298 | 23581 ft | 407 kts | 320° |
| 2026-04-30 14:19 | 44.04477 | 1.67873 | 23967 ft | 412 kts | 319° |
| 2026-04-30 14:19 | 44.06749 | 1.65426 | 24401 ft | 415 kts | 319° |
| 2026-04-30 14:20 | 44.09033 | 1.62960 | 24858 ft | 416 kts | 319° |
| 2026-04-30 14:20 | 44.11327 | 1.60488 | 25312 ft | 418 kts | 319° |
| 2026-04-30 14:20 | 44.15946 | 1.55515 | 26192 ft | 422 kts | 319° |
| 2026-04-30 14:21 | 44.18238 | 1.53041 | 26629 ft | 423 kts | 319° |
| 2026-04-30 14:21 | 44.20560 | 1.50531 | 27009 ft | 422 kts | 318° |
| 2026-04-30 14:21 | 44.25178 | 1.45546 | 27270 ft | 427 kts | 319° |
| 2026-04-30 14:22 | 44.27537 | 1.42989 | 27584 ft | 432 kts | 319° |
| 2026-04-30 14:22 | 44.32307 | 1.37811 | 28395 ft | 437 kts | 319° |
| 2026-04-30 14:22 | 44.34709 | 1.35199 | 28795 ft | 439 kts | 319° |
| 2026-04-30 14:23 | 44.39514 | 1.29961 | 29580 ft | 442 kts | 319° |
| 2026-04-30 14:23 | 44.44454 | 1.24725 | 30127 ft | 453 kts | 326° |
| 2026-04-30 14:24 | 44.50268 | 1.21120 | 30635 ft | 463 kts | 343° |
| 2026-04-30 14:24 | 44.53382 | 1.19919 | 30932 ft | 465 kts | 343° |
| 2026-04-30 14:25 | 44.59646 | 1.17485 | 31576 ft | 468 kts | 342° |
| 2026-04-30 14:25 | 44.65864 | 1.15045 | 32345 ft | 467 kts | 343° |
| 2026-04-30 14:26 | 44.72122 | 1.12581 | 33112 ft | 467 kts | 342° |
| 2026-04-30 14:26 | 44.75245 | 1.11355 | 33538 ft | 465 kts | 342° |
| 2026-04-30 14:26 | 44.81468 | 1.08911 | 34118 ft | 461 kts | 342° |
| 2026-04-30 14:27 | 44.84543 | 1.07703 | 34141 ft | 456 kts | 342° |
| 2026-04-30 14:27 | 44.90635 | 1.05307 | 34139 ft | 454 kts | 342° |
| 2026-04-30 14:28 | 44.99710 | 1.01722 | 34141 ft | 453 kts | 342° |
| 2026-04-30 14:28 | 45.05798 | 0.99301 | 34138 ft | 455 kts | 342° |
| 2026-04-30 14:29 | 45.17012 | 0.95136 | 34139 ft | 456 kts | 346° |
| 2026-04-30 14:31 | 45.33664 | 0.90483 | 34123 ft | 458 kts | 347° |
| 2026-04-30 14:31 | 45.42969 | 0.87658 | 34118 ft | 458 kts | 347° |
| 2026-04-30 14:32 | 45.52329 | 0.84831 | 34118 ft | 459 kts | 348° |
| 2026-04-30 14:33 | 45.58581 | 0.82965 | 34105 ft | 459 kts | 348° |
| 2026-04-30 14:33 | 45.67918 | 0.80159 | 34106 ft | 459 kts | 348° |
| 2026-04-30 14:34 | 45.74169 | 0.78267 | 34112 ft | 459 kts | 348° |
| 2026-04-30 14:34 | 45.80421 | 0.76364 | 34116 ft | 459 kts | 349° |
| 2026-04-30 14:35 | 45.89794 | 0.73512 | 34113 ft | 459 kts | 349° |
| 2026-04-30 14:36 | 45.96008 | 0.71627 | 34103 ft | 459 kts | 349° |
| 2026-04-30 14:36 | 46.02255 | 0.69726 | 34095 ft | 460 kts | 349° |
| 2026-04-30 14:37 | 46.08514 | 0.67813 | 34094 ft | 460 kts | 349° |
| 2026-04-30 14:37 | 46.14776 | 0.65882 | 34097 ft | 460 kts | 349° |
| 2026-04-30 14:38 | 46.21005 | 0.63958 | 34088 ft | 461 kts | 349° |
| 2026-04-30 14:38 | 46.27278 | 0.62032 | 34086 ft | 461 kts | 349° |
| 2026-04-30 14:39 | 46.33571 | 0.60098 | 34096 ft | 463 kts | 349° |
| 2026-04-30 14:39 | 46.39868 | 0.58144 | 34090 ft | 462 kts | 349° |
| 2026-04-30 14:40 | 46.49220 | 0.55221 | 34090 ft | 460 kts | 349° |
| 2026-04-30 14:40 | 46.55535 | 0.53821 | 34094 ft | 458 kts | 1° |
| 2026-04-30 14:41 | 46.61801 | 0.54947 | 34089 ft | 453 kts | 15° |
| 2026-04-30 14:41 | 46.67909 | 0.56973 | 34093 ft | 453 kts | 15° |
| 2026-04-30 14:42 | 46.74050 | 0.58988 | 34099 ft | 452 kts | 14° |
| 2026-04-30 14:42 | 46.80194 | 0.61016 | 34091 ft | 452 kts | 15° |
| 2026-04-30 14:43 | 46.86332 | 0.63047 | 34088 ft | 452 kts | 15° |
| 2026-04-30 14:43 | 46.92463 | 0.65086 | 34081 ft | 452 kts | 15° |
| 2026-04-30 14:44 | 46.98549 | 0.67122 | 34074 ft | 451 kts | 15° |
| 2026-04-30 14:44 | 47.04685 | 0.69083 | 34089 ft | 452 kts | 10° |
| 2026-04-30 14:45 | 47.10956 | 0.69822 | 34094 ft | 453 kts | 6° |
| 2026-04-30 14:45 | 47.17239 | 0.70480 | 34083 ft | 452 kts | 6° |
| 2026-04-30 14:46 | 47.23470 | 0.71132 | 34082 ft | 452 kts | 6° |
| 2026-04-30 14:46 | 47.29740 | 0.71791 | 34082 ft | 451 kts | 6° |
| 2026-04-30 14:47 | 47.35993 | 0.72440 | 34084 ft | 451 kts | 6° |
| 2026-04-30 14:47 | 47.42258 | 0.73083 | 34072 ft | 451 kts | 6° |
| 2026-04-30 14:48 | 47.48467 | 0.73824 | 34071 ft | 450 kts | 11° |
| 2026-04-30 14:48 | 47.54465 | 0.76270 | 34063 ft | 447 kts | 20° |
| 2026-04-30 14:49 | 47.60372 | 0.79183 | 34065 ft | 447 kts | 20° |
| 2026-04-30 14:49 | 47.66275 | 0.82084 | 34065 ft | 447 kts | 20° |
| 2026-04-30 14:50 | 47.75092 | 0.86424 | 34070 ft | 447 kts | 20° |
| 2026-04-30 14:51 | 47.83937 | 0.90815 | 34071 ft | 446 kts | 20° |
| 2026-04-30 14:52 | 47.92756 | 0.95269 | 34078 ft | 446 kts | 20° |
| 2026-04-30 14:52 | 48.01519 | 0.99714 | 34073 ft | 445 kts | 20° |
| 2026-04-30 14:53 | 48.10316 | 1.04179 | 34079 ft | 445 kts | 20° |
| 2026-04-30 14:54 | 48.21962 | 1.10132 | 34078 ft | 445 kts | 20° |
| 2026-04-30 14:55 | 48.28998 | 1.14172 | 34092 ft | 442 kts | 26° |
| 2026-04-30 14:56 | 48.40759 | 1.19849 | 34089 ft | 445 kts | 18° |
| 2026-04-30 14:57 | 48.48610 | 1.23625 | 34085 ft | 445 kts | 21° |
| 2026-04-30 14:58 | 48.61275 | 1.30249 | 34085 ft | 446 kts | 21° |
| 2026-04-30 14:58 | 48.70120 | 1.34687 | 34091 ft | 447 kts | 21° |
| 2026-04-30 15:00 | 48.84835 | 1.42136 | 34113 ft | 448 kts | 21° |
| 2026-04-30 15:01 | 48.96456 | 1.48794 | 34120 ft | 443 kts | 34° |
| 2026-04-30 15:01 | 49.03130 | 1.58176 | 34117 ft | 435 kts | 51° |
| 2026-04-30 15:02 | 49.07129 | 1.65035 | 34113 ft | 436 kts | 51° |
| 2026-04-30 15:03 | 49.17187 | 1.82320 | 34131 ft | 435 kts | 52° |
| 2026-04-30 15:04 | 49.27341 | 1.99924 | 31713 ft | 439 kts | 52° |
| 2026-04-30 15:05 | 49.33280 | 2.10258 | 29935 ft | 427 kts | 52° |
| 2026-04-30 15:06 | 49.37143 | 2.17016 | 28801 ft | 416 kts | 52° |
| 2026-04-30 15:06 | 49.40908 | 2.23617 | 27700 ft | 406 kts | 52° |
| 2026-04-30 15:07 | 49.44557 | 2.30023 | 26653 ft | 397 kts | 52° |
| 2026-04-30 15:07 | 49.48150 | 2.36346 | 25642 ft | 389 kts | 53° |
| 2026-04-30 15:08 | 49.51676 | 2.42568 | 24679 ft | 382 kts | 53° |
| 2026-04-30 15:08 | 49.57387 | 2.51010 | 23235 ft | 383 kts | 36° |
| 2026-04-30 15:09 | 49.61865 | 2.55310 | 22350 ft | 376 kts | 36° |
| 2026-04-30 15:09 | 49.66255 | 2.59561 | 21440 ft | 369 kts | 36° |
| 2026-04-30 15:10 | 49.70539 | 2.63728 | 20534 ft | 364 kts | 36° |
| 2026-04-30 15:11 | 49.79027 | 2.72005 | 18653 ft | 359 kts | 35° |
| 2026-04-30 15:11 | 49.83232 | 2.76125 | 17677 ft | 356 kts | 35° |
| 2026-04-30 15:12 | 49.89451 | 2.82224 | 16311 ft | 350 kts | 35° |
| 2026-04-30 15:13 | 49.93542 | 2.86233 | 15408 ft | 347 kts | 34° |
| 2026-04-30 15:14 | 50.02341 | 2.91554 | 13552 ft | 353 kts | 0° |
| 2026-04-30 15:14 | 50.09540 | 2.89350 | 12123 ft | 349 kts | 350° |
| 2026-04-30 15:16 | 50.21167 | 2.85465 | 10318 ft | 324 kts | 350° |
| 2026-04-30 15:17 | 50.29663 | 2.82624 | 8859 ft | 305 kts | 351° |
| 2026-04-30 15:18 | 50.38933 | 2.79488 | 6788 ft | 267 kts | 351° |
| 2026-04-30 15:19 | 50.44954 | 2.77639 | 5816 ft | 263 kts | 353° |